sensor_id;sensor_type;location;lat;lon;timestamp;P1;durP1;ratioP1;P2;durP2;ratioP2
50363;SDS011;36272;59.400;17.982;2024-01-27T00:00:52;13.75;;;5.88;;
50363;SDS011;36272;59.400;17.982;2024-01-27T00:05:54;16.23;;;6.15;;
50363;SDS011;36272;59.400;17.982;2024-01-27T00:10:55;17.10;;;6.32;;
50363;SDS011;36272;59.400;17.982;2024-01-27T00:15:57;14.82;;;6.05;;
50363;SDS011;36272;59.400;17.982;2024-01-27T00:20:59;21.27;;;7.18;;
50363;SDS011;36272;59.400;17.982;2024-01-27T00:26:01;18.75;;;6.10;;
50363;SDS011;36272;59.400;17.982;2024-01-27T00:31:02;16.70;;;6.22;;
50363;SDS011;36272;59.400;17.982;2024-01-27T00:36:04;23.42;;;7.10;;
50363;SDS011;36272;59.400;17.982;2024-01-27T00:41:06;22.02;;;7.78;;
50363;SDS011;36272;59.400;17.982;2024-01-27T00:46:08;22.05;;;7.80;;
50363;SDS011;36272;59.400;17.982;2024-01-27T00:51:09;26.60;;;8.07;;
50363;SDS011;36272;59.400;17.982;2024-01-27T00:56:11;26.98;;;7.85;;
50363;SDS011;36272;59.400;17.982;2024-01-27T01:01:12;33.65;;;8.60;;
50363;SDS011;36272;59.400;17.982;2024-01-27T01:06:14;25.63;;;9.02;;
50363;SDS011;36272;59.400;17.982;2024-01-27T01:11:16;33.55;;;10.13;;
50363;SDS011;36272;59.400;17.982;2024-01-27T01:16:17;28.60;;;9.52;;
50363;SDS011;36272;59.400;17.982;2024-01-27T01:21:19;34.70;;;10.80;;
50363;SDS011;36272;59.400;17.982;2024-01-27T01:26:20;32.80;;;11.38;;
50363;SDS011;36272;59.400;17.982;2024-01-27T01:31:22;34.40;;;11.52;;
50363;SDS011;36272;59.400;17.982;2024-01-27T01:36:24;36.95;;;12.25;;
50363;SDS011;36272;59.400;17.982;2024-01-27T01:41:25;44.65;;;12.65;;
50363;SDS011;36272;59.400;17.982;2024-01-27T01:46:27;46.20;;;13.05;;
50363;SDS011;36272;59.400;17.982;2024-01-27T01:51:28;56.15;;;15.38;;
50363;SDS011;36272;59.400;17.982;2024-01-27T01:56:30;68.60;;;17.15;;
50363;SDS011;36272;59.400;17.982;2024-01-27T02:01:32;66.85;;;16.85;;
50363;SDS011;36272;59.400;17.982;2024-01-27T02:06:34;86.05;;;17.60;;
50363;SDS011;36272;59.400;17.982;2024-01-27T02:11:35;74.20;;;16.73;;
50363;SDS011;36272;59.400;17.982;2024-01-27T02:16:38;76.53;;;16.92;;
50363;SDS011;36272;59.400;17.982;2024-01-27T02:21:40;71.85;;;16.08;;
50363;SDS011;36272;59.400;17.982;2024-01-27T02:26:42;54.50;;;12.93;;
50363;SDS011;36272;59.400;17.982;2024-01-27T02:31:43;44.95;;;10.48;;
50363;SDS011;36272;59.400;17.982;2024-01-27T02:36:45;37.58;;;9.70;;
50363;SDS011;36272;59.400;17.982;2024-01-27T02:41:46;28.20;;;8.80;;
50363;SDS011;36272;59.400;17.982;2024-01-27T02:46:48;25.15;;;8.25;;
50363;SDS011;36272;59.400;17.982;2024-01-27T02:51:50;16.95;;;6.90;;
50363;SDS011;36272;59.400;17.982;2024-01-27T02:56:51;15.07;;;5.80;;
50363;SDS011;36272;59.400;17.982;2024-01-27T03:01:53;11.35;;;5.88;;
50363;SDS011;36272;59.400;17.982;2024-01-27T03:06:55;13.00;;;5.65;;
50363;SDS011;36272;59.400;17.982;2024-01-27T03:11:56;11.88;;;5.88;;
50363;SDS011;36272;59.400;17.982;2024-01-27T03:16:58;12.75;;;6.30;;
50363;SDS011;36272;59.400;17.982;2024-01-27T03:22:00;8.43;;;4.55;;
50363;SDS011;36272;59.400;17.982;2024-01-27T03:27:01;7.57;;;5.20;;
50363;SDS011;36272;59.400;17.982;2024-01-27T03:32:03;9.18;;;5.45;;
50363;SDS011;36272;59.400;17.982;2024-01-27T03:37:05;5.43;;;3.80;;
50363;SDS011;36272;59.400;17.982;2024-01-27T03:42:06;5.47;;;3.28;;
50363;SDS011;36272;59.400;17.982;2024-01-27T03:47:08;6.65;;;3.50;;
50363;SDS011;36272;59.400;17.982;2024-01-27T03:52:09;6.72;;;3.80;;
50363;SDS011;36272;59.400;17.982;2024-01-27T03:57:11;5.20;;;3.80;;
50363;SDS011;36272;59.400;17.982;2024-01-27T04:02:13;5.20;;;3.70;;
50363;SDS011;36272;59.400;17.982;2024-01-27T04:07:14;4.82;;;3.38;;
50363;SDS011;36272;59.400;17.982;2024-01-27T04:12:16;2.83;;;2.50;;
50363;SDS011;36272;59.400;17.982;2024-01-27T04:17:18;6.15;;;3.20;;
50363;SDS011;36272;59.400;17.982;2024-01-27T04:22:19;4.20;;;2.60;;
50363;SDS011;36272;59.400;17.982;2024-01-27T04:27:21;3.60;;;2.90;;
50363;SDS011;36272;59.400;17.982;2024-01-27T04:32:23;3.60;;;2.75;;
50363;SDS011;36272;59.400;17.982;2024-01-27T04:37:25;3.60;;;2.78;;
50363;SDS011;36272;59.400;17.982;2024-01-27T04:42:27;3.47;;;2.33;;
50363;SDS011;36272;59.400;17.982;2024-01-27T04:47:28;3.42;;;2.20;;
50363;SDS011;36272;59.400;17.982;2024-01-27T04:52:30;2.50;;;2.13;;
50363;SDS011;36272;59.400;17.982;2024-01-27T04:57:32;4.40;;;1.95;;
50363;SDS011;36272;59.400;17.982;2024-01-27T05:02:33;2.17;;;1.85;;
50363;SDS011;36272;59.400;17.982;2024-01-27T05:07:35;2.58;;;2.00;;
50363;SDS011;36272;59.400;17.982;2024-01-27T05:12:36;2.15;;;1.83;;
50363;SDS011;36272;59.400;17.982;2024-01-27T05:17:38;2.88;;;1.88;;
50363;SDS011;36272;59.400;17.982;2024-01-27T05:22:39;2.33;;;1.63;;
50363;SDS011;36272;59.400;17.982;2024-01-27T05:27:41;1.83;;;1.63;;
50363;SDS011;36272;59.400;17.982;2024-01-27T05:32:43;2.55;;;1.67;;
50363;SDS011;36272;59.400;17.982;2024-01-27T05:37:44;3.92;;;1.85;;
50363;SDS011;36272;59.400;17.982;2024-01-27T05:42:46;2.78;;;1.90;;
50363;SDS011;36272;59.400;17.982;2024-01-27T05:47:47;2.97;;;1.88;;
50363;SDS011;36272;59.400;17.982;2024-01-27T05:52:49;2.33;;;1.85;;
50363;SDS011;36272;59.400;17.982;2024-01-27T05:57:50;5.50;;;2.10;;
50363;SDS011;36272;59.400;17.982;2024-01-27T06:02:52;3.33;;;2.20;;
50363;SDS011;36272;59.400;17.982;2024-01-27T06:07:54;2.85;;;1.98;;
50363;SDS011;36272;59.400;17.982;2024-01-27T06:12:55;2.83;;;1.70;;
50363;SDS011;36272;59.400;17.982;2024-01-27T06:17:57;3.03;;;1.80;;
50363;SDS011;36272;59.400;17.982;2024-01-27T06:22:59;1.73;;;1.42;;
50363;SDS011;36272;59.400;17.982;2024-01-27T06:28:00;2.53;;;1.60;;
50363;SDS011;36272;59.400;17.982;2024-01-27T06:33:02;4.18;;;1.75;;
50363;SDS011;36272;59.400;17.982;2024-01-27T06:38:03;6.70;;;1.90;;
50363;SDS011;36272;59.400;17.982;2024-01-27T06:43:05;3.30;;;1.60;;
50363;SDS011;36272;59.400;17.982;2024-01-27T06:48:07;5.28;;;1.88;;
50363;SDS011;36272;59.400;17.982;2024-01-27T06:53:08;4.65;;;1.80;;
50363;SDS011;36272;59.400;17.982;2024-01-27T06:58:11;4.55;;;1.80;;
50363;SDS011;36272;59.400;17.982;2024-01-27T07:03:13;3.45;;;1.55;;
50363;SDS011;36272;59.400;17.982;2024-01-27T07:08:14;4.10;;;1.92;;
50363;SDS011;36272;59.400;17.982;2024-01-27T07:13:17;7.90;;;2.10;;
50363;SDS011;36272;59.400;17.982;2024-01-27T07:18:19;8.27;;;1.70;;
50363;SDS011;36272;59.400;17.982;2024-01-27T07:23:20;5.32;;;1.83;;
50363;SDS011;36272;59.400;17.982;2024-01-27T07:28:22;6.82;;;2.08;;
50363;SDS011;36272;59.400;17.982;2024-01-27T07:33:24;8.65;;;2.17;;
50363;SDS011;36272;59.400;17.982;2024-01-27T07:38:25;7.85;;;1.73;;
50363;SDS011;36272;59.400;17.982;2024-01-27T07:43:28;5.85;;;2.08;;
50363;SDS011;36272;59.400;17.982;2024-01-27T07:48:29;8.85;;;2.47;;
50363;SDS011;36272;59.400;17.982;2024-01-27T07:53:31;14.35;;;3.03;;
50363;SDS011;36272;59.400;17.982;2024-01-27T07:58:32;9.40;;;2.30;;
50363;SDS011;36272;59.400;17.982;2024-01-27T08:03:49;10.85;;;2.25;;
50363;SDS011;36272;59.400;17.982;2024-01-27T08:10:17;12.20;;;2.92;;
50363;SDS011;36272;59.400;17.982;2024-01-27T08:15:30;8.75;;;2.38;;
50363;SDS011;36272;59.400;17.982;2024-01-27T08:21:27;8.00;;;1.90;;
50363;SDS011;36272;59.400;17.982;2024-01-27T08:26:29;12.30;;;2.10;;
50363;SDS011;36272;59.400;17.982;2024-01-27T08:31:30;6.25;;;1.88;;
50363;SDS011;36272;59.400;17.982;2024-01-27T08:36:32;7.15;;;1.65;;
50363;SDS011;36272;59.400;17.982;2024-01-27T08:41:35;12.68;;;2.25;;
50363;SDS011;36272;59.400;17.982;2024-01-27T08:52:27;11.40;;;1.92;;
50363;SDS011;36272;59.400;17.982;2024-01-27T08:57:29;9.25;;;1.85;;
50363;SDS011;36272;59.400;17.982;2024-01-27T09:02:39;9.32;;;2.20;;
50363;SDS011;36272;59.400;17.982;2024-01-27T09:07:46;11.13;;;2.00;;
50363;SDS011;36272;59.400;17.982;2024-01-27T09:12:48;13.27;;;2.72;;
50363;SDS011;36272;59.400;17.982;2024-01-27T09:17:52;7.10;;;1.90;;
50363;SDS011;36272;59.400;17.982;2024-01-27T09:22:57;16.95;;;2.95;;
50363;SDS011;36272;59.400;17.982;2024-01-27T09:33:57;12.07;;;1.90;;
50363;SDS011;36272;59.400;17.982;2024-01-27T09:40:09;16.83;;;2.17;;
50363;SDS011;36272;59.400;17.982;2024-01-27T09:45:55;11.27;;;1.90;;
50363;SDS011;36272;59.400;17.982;2024-01-27T09:51:25;10.93;;;2.28;;
50363;SDS011;36272;59.400;17.982;2024-01-27T09:56:29;11.52;;;2.20;;
50363;SDS011;36272;59.400;17.982;2024-01-27T10:01:32;13.90;;;2.30;;
50363;SDS011;36272;59.400;17.982;2024-01-27T10:06:35;9.15;;;1.90;;
50363;SDS011;36272;59.400;17.982;2024-01-27T10:11:36;11.25;;;2.13;;
50363;SDS011;36272;59.400;17.982;2024-01-27T10:16:44;17.38;;;2.05;;
50363;SDS011;36272;59.400;17.982;2024-01-27T10:21:47;16.30;;;2.63;;
50363;SDS011;36272;59.400;17.982;2024-01-27T10:26:49;12.65;;;2.17;;
50363;SDS011;36272;59.400;17.982;2024-01-27T10:31:51;10.95;;;2.00;;
50363;SDS011;36272;59.400;17.982;2024-01-27T10:36:55;7.45;;;1.90;;
50363;SDS011;36272;59.400;17.982;2024-01-27T10:41:56;8.90;;;2.00;;
50363;SDS011;36272;59.400;17.982;2024-01-27T10:47:03;20.50;;;2.75;;
50363;SDS011;36272;59.400;17.982;2024-01-27T10:52:11;18.10;;;2.20;;
50363;SDS011;36272;59.400;17.982;2024-01-27T10:57:15;24.10;;;4.03;;
50363;SDS011;36272;59.400;17.982;2024-01-27T11:02:18;18.48;;;2.30;;
50363;SDS011;36272;59.400;17.982;2024-01-27T11:07:20;13.77;;;2.03;;
50363;SDS011;36272;59.400;17.982;2024-01-27T11:12:23;13.02;;;1.98;;
50363;SDS011;36272;59.400;17.982;2024-01-27T11:17:26;10.20;;;2.05;;
50363;SDS011;36272;59.400;17.982;2024-01-27T11:22:28;10.82;;;1.95;;
50363;SDS011;36272;59.400;17.982;2024-01-27T11:27:31;15.98;;;2.00;;
50363;SDS011;36272;59.400;17.982;2024-01-27T11:32:33;12.85;;;2.72;;
50363;SDS011;36272;59.400;17.982;2024-01-27T11:37:35;17.15;;;2.42;;
50363;SDS011;36272;59.400;17.982;2024-01-27T11:42:43;15.15;;;3.13;;
50363;SDS011;36272;59.400;17.982;2024-01-27T11:48:12;10.55;;;2.35;;
50363;SDS011;36272;59.400;17.982;2024-01-27T11:53:21;17.50;;;2.83;;
50363;SDS011;36272;59.400;17.982;2024-01-27T11:58:24;7.78;;;2.00;;
50363;SDS011;36272;59.400;17.982;2024-01-27T12:03:26;18.77;;;2.80;;
50363;SDS011;36272;59.400;17.982;2024-01-27T12:08:28;20.10;;;3.30;;
50363;SDS011;36272;59.400;17.982;2024-01-27T12:13:30;15.82;;;2.70;;
50363;SDS011;36272;59.400;17.982;2024-01-27T12:18:31;15.65;;;2.63;;
50363;SDS011;36272;59.400;17.982;2024-01-27T12:23:33;16.33;;;2.50;;
50363;SDS011;36272;59.400;17.982;2024-01-27T12:28:34;12.48;;;2.25;;
50363;SDS011;36272;59.400;17.982;2024-01-27T12:33:38;12.77;;;2.42;;
50363;SDS011;36272;59.400;17.982;2024-01-27T12:38:42;7.05;;;1.70;;
50363;SDS011;36272;59.400;17.982;2024-01-27T12:43:47;8.57;;;1.70;;
50363;SDS011;36272;59.400;17.982;2024-01-27T12:48:48;8.30;;;2.10;;
50363;SDS011;36272;59.400;17.982;2024-01-27T12:53:50;10.27;;;2.17;;
50363;SDS011;36272;59.400;17.982;2024-01-27T12:58:51;7.85;;;1.98;;
50363;SDS011;36272;59.400;17.982;2024-01-27T13:03:53;7.57;;;1.98;;
50363;SDS011;36272;59.400;17.982;2024-01-27T13:08:55;10.68;;;2.30;;
50363;SDS011;36272;59.400;17.982;2024-01-27T13:13:57;15.10;;;2.13;;
50363;SDS011;36272;59.400;17.982;2024-01-27T13:18:59;11.55;;;2.08;;
50363;SDS011;36272;59.400;17.982;2024-01-27T13:24:00;10.68;;;2.08;;
50363;SDS011;36272;59.400;17.982;2024-01-27T13:29:02;9.35;;;2.50;;
50363;SDS011;36272;59.400;17.982;2024-01-27T13:34:04;12.80;;;2.33;;
50363;SDS011;36272;59.400;17.982;2024-01-27T13:39:09;13.60;;;2.40;;
50363;SDS011;36272;59.400;17.982;2024-01-27T13:44:11;13.60;;;2.10;;
50363;SDS011;36272;59.400;17.982;2024-01-27T13:49:13;12.57;;;2.97;;
50363;SDS011;36272;59.400;17.982;2024-01-27T13:54:14;8.80;;;2.85;;
50363;SDS011;36272;59.400;17.982;2024-01-27T13:59:17;10.40;;;2.05;;
50363;SDS011;36272;59.400;17.982;2024-01-27T14:04:19;9.65;;;2.85;;
50363;SDS011;36272;59.400;17.982;2024-01-27T14:09:21;11.23;;;2.63;;
50363;SDS011;36272;59.400;17.982;2024-01-27T14:14:24;18.17;;;2.55;;
50363;SDS011;36272;59.400;17.982;2024-01-27T14:19:25;15.13;;;2.47;;
50363;SDS011;36272;59.400;17.982;2024-01-27T14:24:27;15.13;;;2.70;;
50363;SDS011;36272;59.400;17.982;2024-01-27T14:29:29;15.32;;;2.70;;
50363;SDS011;36272;59.400;17.982;2024-01-27T14:34:30;10.63;;;2.90;;
50363;SDS011;36272;59.400;17.982;2024-01-27T14:39:32;18.40;;;2.85;;
50363;SDS011;36272;59.400;17.982;2024-01-27T14:44:34;15.52;;;2.95;;
50363;SDS011;36272;59.400;17.982;2024-01-27T14:49:36;17.30;;;3.20;;
50363;SDS011;36272;59.400;17.982;2024-01-27T14:54:43;18.77;;;3.83;;
50363;SDS011;36272;59.400;17.982;2024-01-27T14:59:45;17.77;;;2.90;;
50363;SDS011;36272;59.400;17.982;2024-01-27T15:04:46;15.02;;;3.03;;
50363;SDS011;36272;59.400;17.982;2024-01-27T15:09:48;16.02;;;3.38;;
50363;SDS011;36272;59.400;17.982;2024-01-27T15:14:50;23.25;;;3.33;;
50363;SDS011;36272;59.400;17.982;2024-01-27T15:19:51;14.05;;;3.20;;
50363;SDS011;36272;59.400;17.982;2024-01-27T15:24:53;11.20;;;3.38;;
50363;SDS011;36272;59.400;17.982;2024-01-27T15:29:55;13.85;;;2.80;;
50363;SDS011;36272;59.400;17.982;2024-01-27T15:34:57;12.90;;;2.85;;
50363;SDS011;36272;59.400;17.982;2024-01-27T15:39:58;13.00;;;3.00;;
50363;SDS011;36272;59.400;17.982;2024-01-27T15:45:00;15.52;;;3.38;;
50363;SDS011;36272;59.400;17.982;2024-01-27T15:50:01;12.85;;;3.33;;
50363;SDS011;36272;59.400;17.982;2024-01-27T16:00:08;10.05;;;3.10;;
50363;SDS011;36272;59.400;17.982;2024-01-27T16:05:13;13.25;;;2.97;;
50363;SDS011;36272;59.400;17.982;2024-01-27T16:10:18;15.95;;;3.20;;
50363;SDS011;36272;59.400;17.982;2024-01-27T16:15:22;18.90;;;3.40;;
50363;SDS011;36272;59.400;17.982;2024-01-27T16:20:24;19.17;;;3.20;;
50363;SDS011;36272;59.400;17.982;2024-01-27T16:25:26;16.77;;;3.08;;
50363;SDS011;36272;59.400;17.982;2024-01-27T16:30:27;12.80;;;3.40;;
50363;SDS011;36272;59.400;17.982;2024-01-27T16:35:34;10.63;;;3.05;;
50363;SDS011;36272;59.400;17.982;2024-01-27T16:40:35;17.40;;;3.45;;
50363;SDS011;36272;59.400;17.982;2024-01-27T16:45:37;18.42;;;3.75;;
50363;SDS011;36272;59.400;17.982;2024-01-27T16:50:38;16.38;;;3.58;;
50363;SDS011;36272;59.400;17.982;2024-01-27T16:55:44;15.52;;;3.88;;
50363;SDS011;36272;59.400;17.982;2024-01-27T17:00:45;17.75;;;3.47;;
50363;SDS011;36272;59.400;17.982;2024-01-27T17:05:47;21.50;;;4.38;;
50363;SDS011;36272;59.400;17.982;2024-01-27T17:10:48;30.13;;;4.90;;
50363;SDS011;36272;59.400;17.982;2024-01-27T17:15:50;23.80;;;4.72;;
50363;SDS011;36272;59.400;17.982;2024-01-27T17:20:55;23.13;;;4.10;;
50363;SDS011;36272;59.400;17.982;2024-01-27T17:26:05;21.15;;;5.22;;
50363;SDS011;36272;59.400;17.982;2024-01-27T17:31:07;26.20;;;5.03;;
50363;SDS011;36272;59.400;17.982;2024-01-27T17:36:08;26.88;;;6.53;;
50363;SDS011;36272;59.400;17.982;2024-01-27T17:41:10;35.55;;;6.22;;
50363;SDS011;36272;59.400;17.982;2024-01-27T17:46:12;30.42;;;6.00;;
50363;SDS011;36272;59.400;17.982;2024-01-27T17:51:14;41.35;;;7.70;;
50363;SDS011;36272;59.400;17.982;2024-01-27T17:56:20;42.28;;;7.80;;
50363;SDS011;36272;59.400;17.982;2024-01-27T18:01:23;44.15;;;8.35;;
50363;SDS011;36272;59.400;17.982;2024-01-27T18:06:25;38.55;;;9.15;;
50363;SDS011;36272;59.400;17.982;2024-01-27T18:11:27;47.70;;;10.00;;
50363;SDS011;36272;59.400;17.982;2024-01-27T18:16:28;44.65;;;9.30;;
50363;SDS011;36272;59.400;17.982;2024-01-27T18:21:30;52.30;;;9.70;;
50363;SDS011;36272;59.400;17.982;2024-01-27T18:26:31;40.95;;;8.05;;
50363;SDS011;36272;59.400;17.982;2024-01-27T18:31:33;45.60;;;8.88;;
50363;SDS011;36272;59.400;17.982;2024-01-27T18:36:36;49.78;;;9.07;;
50363;SDS011;36272;59.400;17.982;2024-01-27T18:41:37;50.58;;;8.27;;
50363;SDS011;36272;59.400;17.982;2024-01-27T18:46:43;55.30;;;8.30;;
50363;SDS011;36272;59.400;17.982;2024-01-27T18:51:45;47.35;;;7.70;;
50363;SDS011;36272;59.400;17.982;2024-01-27T18:56:47;47.25;;;8.63;;
50363;SDS011;36272;59.400;17.982;2024-01-27T19:01:48;50.25;;;7.63;;
50363;SDS011;36272;59.400;17.982;2024-01-27T19:06:50;51.80;;;7.20;;
50363;SDS011;36272;59.400;17.982;2024-01-27T19:11:51;41.83;;;6.97;;
50363;SDS011;36272;59.400;17.982;2024-01-27T19:16:53;64.10;;;8.18;;
50363;SDS011;36272;59.400;17.982;2024-01-27T19:21:56;54.38;;;8.45;;
50363;SDS011;36272;59.400;17.982;2024-01-27T19:26:57;50.90;;;7.32;;
50363;SDS011;36272;59.400;17.982;2024-01-27T19:31:59;52.08;;;6.50;;
50363;SDS011;36272;59.400;17.982;2024-01-27T19:37:03;41.17;;;7.50;;
50363;SDS011;36272;59.400;17.982;2024-01-27T19:42:04;52.05;;;8.73;;
50363;SDS011;36272;59.400;17.982;2024-01-27T19:47:06;61.78;;;8.02;;
50363;SDS011;36272;59.400;17.982;2024-01-27T19:52:09;50.72;;;7.30;;
50363;SDS011;36272;59.400;17.982;2024-01-27T19:57:10;48.78;;;7.28;;
50363;SDS011;36272;59.400;17.982;2024-01-27T20:02:12;44.92;;;7.40;;
50363;SDS011;36272;59.400;17.982;2024-01-27T20:07:14;61.67;;;7.25;;
50363;SDS011;36272;59.400;17.982;2024-01-27T20:12:16;47.65;;;7.45;;
50363;SDS011;36272;59.400;17.982;2024-01-27T20:17:17;49.28;;;6.45;;
50363;SDS011;36272;59.400;17.982;2024-01-27T20:22:20;53.83;;;7.18;;
50363;SDS011;36272;59.400;17.982;2024-01-27T20:27:21;52.97;;;7.18;;
50363;SDS011;36272;59.400;17.982;2024-01-27T20:32:23;56.78;;;6.68;;
50363;SDS011;36272;59.400;17.982;2024-01-27T20:37:25;51.92;;;7.68;;
50363;SDS011;36272;59.400;17.982;2024-01-27T20:42:26;51.63;;;6.75;;
50363;SDS011;36272;59.400;17.982;2024-01-27T20:47:29;36.25;;;6.78;;
50363;SDS011;36272;59.400;17.982;2024-01-27T20:52:31;48.63;;;6.50;;
50363;SDS011;36272;59.400;17.982;2024-01-27T20:57:32;39.42;;;6.35;;
50363;SDS011;36272;59.400;17.982;2024-01-27T21:02:34;46.22;;;5.70;;
50363;SDS011;36272;59.400;17.982;2024-01-27T21:07:41;56.05;;;6.15;;
50363;SDS011;36272;59.400;17.982;2024-01-27T21:12:42;43.13;;;6.90;;
50363;SDS011;36272;59.400;17.982;2024-01-27T21:17:47;43.80;;;5.75;;
50363;SDS011;36272;59.400;17.982;2024-01-27T21:22:49;34.88;;;6.25;;
50363;SDS011;36272;59.400;17.982;2024-01-27T21:27:50;52.17;;;6.32;;
50363;SDS011;36272;59.400;17.982;2024-01-27T21:32:52;39.13;;;5.68;;
50363;SDS011;36272;59.400;17.982;2024-01-27T21:37:53;48.90;;;4.93;;
50363;SDS011;36272;59.400;17.982;2024-01-27T21:42:55;39.88;;;5.75;;
50363;SDS011;36272;59.400;17.982;2024-01-27T21:47:57;38.67;;;4.93;;
50363;SDS011;36272;59.400;17.982;2024-01-27T21:53:01;39.53;;;5.15;;
50363;SDS011;36272;59.400;17.982;2024-01-27T21:58:06;40.35;;;5.72;;
50363;SDS011;36272;59.400;17.982;2024-01-27T22:03:09;41.78;;;5.32;;
50363;SDS011;36272;59.400;17.982;2024-01-27T22:08:11;50.88;;;6.53;;
50363;SDS011;36272;59.400;17.982;2024-01-27T22:13:13;36.65;;;6.13;;
50363;SDS011;36272;59.400;17.982;2024-01-27T22:18:15;37.58;;;5.30;;
50363;SDS011;36272;59.400;17.982;2024-01-27T22:23:16;38.97;;;5.68;;
50363;SDS011;36272;59.400;17.982;2024-01-27T22:28:18;38.78;;;5.40;;
50363;SDS011;36272;59.400;17.982;2024-01-27T22:33:19;41.38;;;5.35;;
50363;SDS011;36272;59.400;17.982;2024-01-27T22:38:21;40.67;;;4.85;;
50363;SDS011;36272;59.400;17.982;2024-01-27T22:43:23;32.50;;;4.32;;
50363;SDS011;36272;59.400;17.982;2024-01-27T22:48:24;30.42;;;4.60;;
50363;SDS011;36272;59.400;17.982;2024-01-27T22:53:27;44.10;;;4.57;;
50363;SDS011;36272;59.400;17.982;2024-01-27T22:58:29;29.02;;;4.40;;
50363;SDS011;36272;59.400;17.982;2024-01-27T23:03:33;35.40;;;4.88;;
50363;SDS011;36272;59.400;17.982;2024-01-27T23:08:34;28.77;;;4.45;;
50363;SDS011;36272;59.400;17.982;2024-01-27T23:13:36;30.45;;;4.35;;
50363;SDS011;36272;59.400;17.982;2024-01-27T23:18:38;30.83;;;3.88;;
50363;SDS011;36272;59.400;17.982;2024-01-27T23:23:40;44.08;;;4.03;;
50363;SDS011;36272;59.400;17.982;2024-01-27T23:28:41;25.40;;;3.28;;
50363;SDS011;36272;59.400;17.982;2024-01-27T23:33:45;23.60;;;3.63;;
50363;SDS011;36272;59.400;17.982;2024-01-27T23:38:46;27.58;;;4.00;;
50363;SDS011;36272;59.400;17.982;2024-01-27T23:43:49;31.55;;;4.55;;
50363;SDS011;36272;59.400;17.982;2024-01-27T23:48:50;28.77;;;3.50;;
50363;SDS011;36272;59.400;17.982;2024-01-27T23:53:52;24.38;;;3.83;;
50363;SDS011;36272;59.400;17.982;2024-01-27T23:58:58;18.67;;;3.55;;
